Time;durP1;ratioP1;P1;durP2;ratioP2;P2;SDS_P1;SDS_P2;PMS_P1;PMS_P2;Temp;Humidity;BMP_temperature;BMP_pressure;BME280_temperature;BME280_humidity;BME280_pressure;Samples;Min_cycle;Max_cycle;Signal;HPM_P1;HPM_P2
2021/07/15 00:01:13;;;;;;;3.70;1.20;;;;;;;18.19;100.00;100077.44;4845583;29;20371;-85
2021/07/15 00:03:38;;;;;;;5.30;1.20;;;;;;;18.15;100.00;100082.03;4845247;29;20025;-85
2021/07/15 00:06:04;;;;;;;5.22;1.33;;;;;;;18.22;100.00;100079.06;4845214;29;20390;-85
2021/07/15 00:08:31;;;;;;;4.28;1.48;;;;;;;18.32;100.00;100088.13;4845229;29;20132;-85
2021/07/15 00:11:17;;;;;;;6.63;1.38;;;;;;;18.33;100.00;100084.53;4845255;29;20493;-85
2021/07/15 00:13:42;;;;;;;4.88;1.20;;;;;;;18.44;100.00;100076.03;4845235;29;20049;-85
2021/07/15 00:16:11;;;;;;;3.47;1.42;;;;;;;18.47;100.00;100074.06;4861878;29;20069;-85
2021/07/15 00:18:41;;;;;;;4.70;1.08;;;;;;;18.45;100.00;100081.22;4845232;29;20057;-85
2021/07/15 00:21:11;;;;;;;6.55;1.50;;;;;;;18.39;100.00;100086.81;4845165;29;20064;-85
2021/07/15 00:23:38;;;;;;;14.23;1.67;;;;;;;18.36;100.00;100084.38;4861874;29;20029;-85
2021/07/15 00:26:04;;;;;;;5.03;1.55;;;;;;;18.25;100.00;100074.47;4845156;29;20022;-85
2021/07/15 00:28:30;;;;;;;4.88;1.42;;;;;;;18.22;100.00;100068.56;4861791;29;20030;-85
2021/07/15 00:30:56;;;;;;;5.88;1.60;;;;;;;18.14;100.00;100075.09;4845280;29;20025;-85
2021/07/15 00:33:22;;;;;;;5.75;1.50;;;;;;;18.08;100.00;100067.59;4844885;29;20478;-85
2021/07/15 00:35:47;;;;;;;5.67;1.30;;;;;;;18.03;100.00;100069.63;4860915;29;20036;-85
2021/07/15 00:38:12;;;;;;;5.45;1.30;;;;;;;18.00;100.00;100061.91;4845043;29;20752;-85
2021/07/15 00:40:38;;;;;;;6.13;1.30;;;;;;;18.06;100.00;100043.19;4861412;29;20072;-85
2021/07/15 00:43:05;;;;;;;6.07;1.70;;;;;;;18.03;100.00;100048.63;4844771;29;20029;-85
2021/07/15 00:45:30;;;;;;;4.20;1.27;;;;;;;18.08;100.00;100041.34;4861359;29;20109;-85
2021/07/15 00:47:56;;;;;;;3.88;1.45;;;;;;;18.06;100.00;100034.47;4844663;29;20104;-85
2021/07/15 00:50:22;;;;;;;7.13;1.10;;;;;;;18.02;100.00;100028.56;4844687;29;20431;-85
2021/07/15 00:52:50;;;;;;;4.65;1.35;;;;;;;17.86;100.00;100025.16;4844675;29;20165;-85
2021/07/15 00:55:29;;;;;;;6.90;1.40;;;;;;;17.76;100.00;100030.00;4844503;29;20399;-85
2021/07/15 00:57:55;;;;;;;4.72;1.60;;;;;;;17.73;100.00;100027.56;4861102;29;20042;-85
2021/07/15 01:00:22;;;;;;;5.90;1.45;;;;;;;17.66;100.00;100032.31;4844563;29;20052;-85
2021/07/15 01:02:58;;;;;;;2.65;1.25;;;;;;;17.56;100.00;100036.38;4844562;29;20051;-85
2021/07/15 01:05:33;;;;;;;4.80;1.50;;;;;;;17.55;100.00;100033.81;4844600;29;20048;-85
2021/07/15 01:08:00;;;;;;;5.05;1.30;;;;;;;17.44;100.00;100047.53;4844304;29;20030;-85
2021/07/15 01:10:28;;;;;;;8.27;1.48;;;;;;;17.35;100.00;100045.44;4861038;29;20034;-85
2021/07/15 01:13:10;;;;;;;6.93;1.30;;;;;;;17.25;100.00;100048.53;4844507;29;20049;-85
2021/07/15 01:15:45;;;;;;;6.55;1.80;;;;;;;17.28;100.00;100051.94;4844430;29;20022;-85
2021/07/15 01:18:58;;;;;;;4.45;1.33;;;;;;;17.29;100.00;100049.22;4844496;29;20038;-85
2021/07/15 01:21:41;;;;;;;3.88;1.50;;;;;;;17.18;100.00;100057.69;4804122;29;20484;-85
2021/07/15 01:24:25;;;;;;;4.77;1.07;;;;;;;17.17;100.00;100065.59;4840153;29;20045;-85
2021/07/15 01:27:24;;;;;;;3.35;1.20;;;;;;;17.05;100.00;100072.34;4860817;29;20361;-85
2021/07/15 01:30:19;;;;;;;5.53;1.67;;;;;;;17.12;100.00;100073.72;4844408;29;20037;-85
2021/07/15 01:33:07;;;;;;;6.63;1.55;;;;;;;17.08;100.00;100068.72;4861239;29;20025;-85
2021/07/15 01:35:49;;;;;;;5.43;1.60;;;;;;;17.08;100.00;100063.47;4844302;29;20021;-85
2021/07/15 01:38:18;;;;;;;5.07;1.40;;;;;;;17.04;100.00;100068.03;4860862;29;20030;-85
2021/07/15 01:40:47;;;;;;;4.85;1.45;;;;;;;17.03;100.00;100077.69;4844204;29;20030;-85
2021/07/15 01:43:26;;;;;;;3.58;1.13;;;;;;;16.92;100.00;100071.31;4844332;29;20482;-85
2021/07/15 01:45:52;;;;;;;8.30;1.48;;;;;;;17.01;100.00;100074.28;4861779;29;20029;-85
2021/07/15 01:48:18;;;;;;;3.50;1.38;;;;;;;17.02;100.00;100072.50;4864385;29;20041;-85
2021/07/15 01:50:44;;;;;;;3.53;1.23;;;;;;;17.03;100.00;100074.22;4847731;29;20495;-85
2021/07/15 01:53:10;;;;;;;6.40;1.08;;;;;;;17.03;100.00;100075.06;4864558;29;20174;-85
2021/07/15 01:55:37;;;;;;;5.85;1.40;;;;;;;17.08;100.00;100082.66;4847540;29;20066;-85
2021/07/15 01:58:15;;;;;;;4.18;1.33;;;;;;;17.03;100.00;100080.31;4847729;29;20040;-85
2021/07/15 02:00:42;;;;;;;4.05;1.48;;;;;;;17.02;100.00;100077.75;4864358;29;20108;-85
2021/07/15 02:03:09;;;;;;;5.38;1.20;;;;;;;16.99;100.00;100086.63;4847738;29;20029;-85
2021/07/15 02:05:36;;;;;;;3.75;1.35;;;;;;;17.02;100.00;100093.47;4847620;29;20109;-85
2021/07/15 02:08:10;;;;;;;5.72;1.45;;;;;;;16.92;100.00;100090.47;4864021;29;20037;-85
2021/07/15 02:10:36;;;;;;;5.82;1.42;;;;;;;16.90;100.00;100087.13;4864084;29;20479;-85
2021/07/15 02:13:01;;;;;;;6.15;1.80;;;;;;;16.86;100.00;100092.56;4847750;29;20173;-85
2021/07/15 02:15:28;;;;;;;3.83;1.33;;;;;;;16.85;100.00;100090.91;4847513;29;20435;-85
2021/07/15 02:17:55;;;;;;;4.50;1.33;;;;;;;16.86;100.00;100100.44;4864004;29;20380;-85
2021/07/15 02:20:22;;;;;;;5.57;1.50;;;;;;;16.95;100.00;100102.59;4864369;29;20149;-85
2021/07/15 02:22:49;;;;;;;3.70;1.40;;;;;;;17.01;100.00;100110.97;4887635;29;20010;-85
2021/07/15 02:25:16;;;;;;;3.90;1.50;;;;;;;17.07;100.00;100114.19;4885368;29;20028;-85
2021/07/15 02:27:45;;;;;;;4.35;1.23;;;;;;;17.12;100.00;100118.28;4847342;29;20057;-85
2021/07/15 02:30:13;;;;;;;7.00;1.70;;;;;;;17.15;100.00;100122.47;4847440;29;20025;-85
2021/07/15 02:33:09;;;;;;;7.07;1.50;;;;;;;17.19;100.00;100124.03;4847615;29;20097;-85
2021/07/15 02:35:42;;;;;;;5.35;1.70;;;;;;;17.21;100.00;100123.03;4845321;29;20038;-85
2021/07/15 02:38:13;;;;;;;5.57;2.00;;;;;;;17.18;100.00;100120.56;4847431;29;20497;-85
2021/07/15 02:40:42;;;;;;;7.20;2.10;;;;;;;17.16;100.00;100113.72;4847085;29;20510;-85
2021/07/15 02:43:07;;;;;;;7.00;1.83;;;;;;;17.23;100.00;100115.09;4847044;29;20077;-85
2021/07/15 02:45:33;;;;;;;6.93;1.65;;;;;;;17.23;100.00;100110.69;4846978;29;20585;-85
2021/07/15 02:47:58;;;;;;;6.32;1.65;;;;;;;17.30;100.00;100112.97;4847219;29;20047;-85
2021/07/15 02:50:25;;;;;;;6.70;1.65;;;;;;;17.26;100.00;100110.50;4847305;29;20074;-86
2021/07/15 02:52:52;;;;;;;4.40;1.50;;;;;;;17.24;100.00;100114.13;4863606;29;20025;-85
2021/07/15 02:55:19;;;;;;;4.47;1.50;;;;;;;17.28;100.00;100125.34;4846965;29;20025;-86
2021/07/15 02:58:12;;;;;;;8.38;1.55;;;;;;;17.35;100.00;100129.31;4845913;29;20037;-85
2021/07/15 03:00:54;;;;;;;5.57;1.80;;;;;;;17.30;100.00;100134.78;4847434;29;20125;-85
2021/07/15 03:03:48;;;;;;;5.50;1.20;;;;;;;17.34;100.00;100135.50;4846759;29;20112;-86
2021/07/15 03:06:17;;;;;;;7.80;1.70;;;;;;;17.35;100.00;100140.66;4846908;29;20025;-85
2021/07/15 03:08:53;;;;;;;4.45;1.60;;;;;;;17.40;100.00;100143.88;4846848;29;20070;-85
2021/07/15 03:11:31;;;;;;;6.25;1.17;;;;;;;17.45;100.00;100149.69;4846493;29;20125;-85
2021/07/15 03:14:07;;;;;;;9.88;1.27;;;;;;;17.47;100.00;100149.63;4863353;29;20029;-85
2021/07/15 03:16:34;;;;;;;5.88;1.42;;;;;;;17.45;100.00;100144.47;4846849;29;20439;-85
2021/07/15 03:19:03;;;;;;;6.40;1.35;;;;;;;17.45;100.00;100146.25;4846394;29;20025;-85
2021/07/15 03:21:29;;;;;;;5.13;1.48;;;;;;;17.52;100.00;100146.75;4862764;29;20029;-85
2021/07/15 03:24:04;;;;;;;3.08;1.23;;;;;;;17.58;100.00;100122.81;4846238;29;20026;-85
2021/07/15 03:26:31;;;;;;;5.60;1.33;;;;;;;17.62;100.00;100125.22;4863094;29;20134;-85
2021/07/15 03:28:58;;;;;;;4.35;1.10;;;;;;;17.71;100.00;100116.84;4846111;29;20487;-85
2021/07/15 03:31:24;;;;;;;3.55;1.10;;;;;;;17.65;100.00;100109.31;4846180;29;20112;-85
2021/07/15 03:33:51;;;;;;;3.10;1.10;;;;;;;17.67;100.00;100109.22;4846083;29;20146;-85
2021/07/15 03:36:17;;;;;;;5.72;1.35;;;;;;;17.65;100.00;100105.84;4845795;29;20037;-85
2021/07/15 03:38:45;;;;;;;3.50;1.02;;;;;;;17.56;100.00;100109.81;4845989;29;20081;-85
2021/07/15 03:41:13;;;;;;;5.00;1.17;;;;;;;17.55;100.00;100120.38;4846098;29;20044;-85
2021/07/15 03:43:41;;;;;;;5.65;1.10;;;;;;;17.54;100.00;100116.91;4845940;29;20112;-85
2021/07/15 03:46:07;;;;;;;4.63;0.93;;;;;;;17.45;100.00;100130.50;4846233;29;20032;-86
2021/07/15 03:48:35;;;;;;;4.15;1.02;;;;;;;17.36;100.00;100133.63;4845772;29;20117;-86
2021/07/15 03:51:03;;;;;;;3.35;1.10;;;;;;;17.39;100.00;100123.81;4845791;29;20539;-86
2021/07/15 03:53:30;;;;;;;4.00;1.15;;;;;;;17.45;100.00;100126.09;4845528;29;20038;-85
2021/07/15 03:56:00;;;;;;;6.60;1.25;;;;;;;17.44;100.00;100132.28;4862463;29;20053;-85
2021/07/15 03:58:27;;;;;;;5.55;1.15;;;;;;;17.48;100.00;100125.09;4862152;29;20470;-85
2021/07/15 04:00:58;;;;;;;4.55;1.38;;;;;;;17.49;100.00;100134.69;4846335;29;20033;-85
2021/07/15 04:03:32;;;;;;;5.03;1.40;;;;;;;17.50;100.00;100131.13;4845646;29;20483;-85
2021/07/15 04:06:02;;;;;;;4.30;1.00;;;;;;;17.60;100.00;100131.47;4862012;29;20033;-86
2021/07/15 04:08:28;;;;;;;5.28;1.13;;;;;;;17.63;100.00;100134.75;4862010;29;20057;-85
2021/07/15 04:10:57;;;;;;;3.85;1.13;;;;;;;17.54;100.00;100148.38;4861967;29;20089;-85
2021/07/15 04:13:29;;;;;;;6.55;1.10;;;;;;;17.56;100.00;100145.69;4845477;29;20037;-85
2021/07/15 04:15:54;;;;;;;3.50;0.98;;;;;;;17.71;100.00;100147.47;4845416;29;20028;-85
2021/07/15 04:18:24;;;;;;;2.17;1.00;;;;;;;17.79;100.00;100152.31;4861796;29;20029;-86
2021/07/15 04:20:49;;;;;;;2.45;0.88;;;;;;;17.75;100.00;100146.38;4845254;29;20655;-86
2021/07/15 04:23:18;;;;;;;6.82;1.20;;;;;;;17.89;100.00;100149.13;4861736;29;20025;-86
2021/07/15 04:25:50;;;;;;;4.20;1.00;;;;;;;17.94;100.00;100154.09;4861757;29;20474;-86
2021/07/15 04:28:16;;;;;;;4.82;1.25;;;;;;;17.97;100.00;100156.56;4845113;29;20622;-85
2021/07/15 04:30:47;;;;;;;3.70;0.93;;;;;;;18.13;100.00;100159.16;4845115;29;20071;-85
2021/07/15 04:33:13;;;;;;;3.97;1.15;;;;;;;18.10;100.00;100157.59;4845014;29;20037;-85
2021/07/15 04:35:39;;;;;;;5.45;0.98;;;;;;;18.10;100.00;100154.09;4844905;29;20036;-86
2021/07/15 04:38:08;;;;;;;4.85;1.10;;;;;;;18.14;100.00;100158.25;4845093;29;20069;-85
2021/07/15 04:40:34;;;;;;;3.95;1.20;;;;;;;18.12;100.00;100154.88;4844975;29;20036;-85
2021/07/15 04:43:05;;;;;;;3.58;1.10;;;;;;;18.21;100.00;100161.38;4845054;29;20093;-85
2021/07/15 04:45:40;;;;;;;3.67;1.00;;;;;;;18.15;100.00;100154.69;4861598;29;20077;-85
2021/07/15 04:48:07;;;;;;;3.53;1.17;;;;;;;18.29;100.00;100154.78;4845003;29;20026;-85
2021/07/15 04:50:35;;;;;;;4.18;1.20;;;;;;;18.40;100.00;100160.25;4861424;29;20057;-85
2021/07/15 04:53:05;;;;;;;6.15;1.20;;;;;;;18.67;100.00;100170.09;4844742;29;20030;-85
2021/07/15 04:55:34;;;;;;;7.53;1.35;;;;;;;18.93;100.00;100165.97;4844729;29;20061;-85
2021/07/15 04:58:01;;;;;;;3.85;0.95;;;;;;;19.04;100.00;100158.28;4861192;29;20030;-85
2021/07/15 05:00:28;;;;;;;4.35;1.20;;;;;;;19.16;100.00;100161.97;4860505;29;20041;-84
2021/07/15 05:03:06;;;;;;;4.82;1.13;;;;;;;19.05;100.00;100154.72;4869808;29;20010;-83
2021/07/15 05:05:31;;;;;;;3.20;1.10;;;;;;;19.32;100.00;100161.88;4845144;29;20423;-86
2021/07/15 05:07:56;;;;;;;3.33;1.08;;;;;;;20.11;100.00;100152.63;4844790;29;20032;-86
2021/07/15 05:10:22;;;;;;;7.43;1.15;;;;;;;20.71;100.00;100148.72;4844572;29;20033;-86
2021/07/15 05:12:47;;;;;;;3.17;1.00;;;;;;;20.73;100.00;100144.19;4844711;29;20438;-85
2021/07/15 05:15:12;;;;;;;3.47;0.90;;;;;;;20.68;100.00;100141.84;4845447;29;20136;-85
2021/07/15 05:17:38;;;;;;;3.75;1.00;;;;;;;20.44;100.00;100139.00;4844765;29;20033;-86
2021/07/15 05:20:06;;;;;;;3.63;1.10;;;;;;;20.19;100.00;100155.59;4844910;29;20029;-86
2021/07/15 05:22:31;;;;;;;3.05;1.00;;;;;;;20.63;100.00;100155.34;4850790;29;20030;-86
2021/07/15 05:24:56;;;;;;;3.88;1.10;;;;;;;20.73;100.00;100162.63;4850764;29;20077;-85
2021/07/15 05:27:22;;;;;;;3.90;0.90;;;;;;;20.11;100.00;100163.16;4850654;29;20558;-85
2021/07/15 05:29:47;;;;;;;3.78;1.05;;;;;;;19.96;100.00;100164.97;4850717;29;20029;-85
2021/07/15 05:32:13;;;;;;;4.07;1.20;;;;;;;19.91;100.00;100172.31;4850593;29;20467;-85
2021/07/15 05:34:38;;;;;;;7.47;0.93;;;;;;;19.84;100.00;100166.59;4850699;29;20048;-85
2021/07/15 05:37:03;;;;;;;3.35;0.95;;;;;;;19.70;100.00;100175.31;4867223;29;20041;-85
2021/07/15 05:39:29;;;;;;;3.65;0.90;;;;;;;19.95;100.00;100169.41;4867150;29;20100;-86
2021/07/15 05:41:59;;;;;;;2.85;0.88;;;;;;;19.84;100.00;100166.59;4850856;29;20094;-86
2021/07/15 05:44:25;;;;;;;3.13;0.90;;;;;;;20.02;100.00;100169.00;4867485;29;20029;-86
2021/07/15 05:46:50;;;;;;;3.53;1.10;;;;;;;20.09;100.00;100171.13;4867087;29;20022;-85
2021/07/15 05:49:16;;;;;;;3.35;0.90;;;;;;;20.09;100.00;100172.94;4850571;29;20026;-86
2021/07/15 05:51:46;;;;;;;4.60;1.10;;;;;;;20.10;100.00;100171.97;4850603;29;20533;-86
2021/07/15 05:54:12;;;;;;;2.85;0.75;;;;;;;20.11;100.00;100176.31;4850887;29;20025;-86
2021/07/15 05:56:38;;;;;;;5.25;1.10;;;;;;;20.19;100.00;100171.38;4949429;23;20045;-75
2021/07/15 05:59:03;;;;;;;4.28;1.20;;;;;;;20.26;100.00;100177.09;4865769;29;20532;-76
2021/07/15 06:01:28;;;;;;;6.50;1.30;;;;;;;20.18;100.00;100196.03;4866202;29;20077;-77
2021/07/15 06:03:54;;;;;;;6.00;1.15;;;;;;;20.37;100.00;100195.69;4866121;29;20479;-77
2021/07/15 06:06:19;;;;;;;6.67;1.23;;;;;;;20.74;100.00;100203.84;4866140;29;20052;-76
2021/07/15 06:08:44;;;;;;;5.30;1.20;;;;;;;20.79;100.00;100196.50;4866004;29;20273;-76
2021/07/15 06:11:09;;;;;;;8.55;1.63;;;;;;;20.56;100.00;100205.91;4866121;29;20278;-76
2021/07/15 06:13:35;;;;;;;4.68;1.20;;;;;;;20.68;100.00;100207.75;4849429;29;20030;-76
2021/07/15 06:16:00;;;;;;;7.73;1.30;;;;;;;20.79;100.00;100207.88;4865942;29;20112;-76
2021/07/15 06:18:25;;;;;;;6.50;1.40;;;;;;;21.10;100.00;100214.56;4866088;29;20281;-76
2021/07/15 06:20:50;;;;;;;4.18;1.30;;;;;;;21.73;99.67;100220.81;4865995;29;20113;-76
2021/07/15 06:23:16;;;;;;;6.65;1.20;;;;;;;22.10;96.26;100210.28;4866061;29;20380;-76
2021/07/15 06:25:41;;;;;;;6.00;1.80;;;;;;;22.53;91.92;100220.41;4865973;29;20033;-76
2021/07/15 06:28:06;;;;;;;4.57;1.20;;;;;;;22.41;93.67;100230.06;4865976;29;20082;-76
2021/07/15 06:30:31;;;;;;;7.72;1.30;;;;;;;22.41;92.16;100226.59;4849374;29;20052;-76
2021/07/15 06:32:58;;;;;;;3.47;1.17;;;;;;;22.16;95.96;100224.84;4863171;29;20038;-76
2021/07/15 06:35:24;;;;;;;4.32;1.10;;;;;;;22.14;94.38;100209.13;4846313;29;20085;-76
2021/07/15 06:37:54;;;;;;;4.40;1.20;;;;;;;22.44;93.45;100215.78;4862899;29;20029;-76
2021/07/15 06:40:21;;;;;;;2.95;1.00;;;;;;;22.84;92.99;100223.41;4862879;29;20041;-76
2021/07/15 06:42:46;;;;;;;5.57;1.40;;;;;;;22.80;88.24;100221.97;4862804;29;20029;-76
2021/07/15 06:45:13;;;;;;;5.63;1.23;;;;;;;23.72;84.52;100223.78;4846218;29;20114;-76
2021/07/15 06:47:39;;;;;;;4.25;1.10;;;;;;;23.78;83.16;100220.63;4846067;29;20093;-76
2021/07/15 06:50:07;;;;;;;3.97;1.70;;;;;;;22.94;85.45;100230.59;4862710;29;20025;-77
2021/07/15 06:52:34;;;;;;;4.43;1.20;;;;;;;22.00;94.14;100240.97;4846084;29;20029;-76
2021/07/15 06:55:01;;;;;;;8.05;1.70;;;;;;;22.35;93.61;100233.16;4862684;29;20063;-76
2021/07/15 06:57:27;;;;;;;7.38;2.13;;;;;;;22.46;91.07;100233.25;4862524;29;20033;-76
2021/07/15 06:59:52;;;;;;;7.43;1.70;;;;;;;22.33;89.89;100239.53;4847048;29;20029;-76
2021/07/15 07:02:17;;;;;;;4.85;1.65;;;;;;;22.59;89.62;100241.09;4846321;29;20029;-77
2021/07/15 07:04:42;;;;;;;3.67;1.35;;;;;;;22.29;91.63;100238.88;4845940;29;20116;-76
2021/07/15 07:07:08;;;;;;;7.63;1.50;;;;;;;22.03;93.50;100244.22;4862465;29;20086;-76
2021/07/15 07:09:33;;;;;;;4.73;1.50;;;;;;;21.95;93.85;100243.94;4862641;29;20067;-77
2021/07/15 07:11:58;;;;;;;5.13;1.80;;;;;;;21.99;96.14;100245.41;4845792;29;20274;-77
2021/07/15 07:14:24;;;;;;;4.82;1.50;;;;;;;22.13;92.87;100252.34;4862615;29;20292;-77
2021/07/15 07:16:49;;;;;;;5.10;1.52;;;;;;;22.11;94.79;100256.91;4862509;29;20156;-77
2021/07/15 07:19:14;;;;;;;7.72;1.80;;;;;;;21.81;94.13;100262.53;4862360;29;20053;-77
2021/07/15 07:21:39;;;;;;;5.68;1.42;;;;;;;21.96;97.86;100258.00;4862217;29;20109;-77
2021/07/15 07:24:05;;;;;;;5.03;1.73;;;;;;;22.43;92.56;100256.41;4862159;29;20029;-76
2021/07/15 07:26:30;;;;;;;8.35;2.22;;;;;;;22.36;92.53;100249.88;4845538;29;20104;-76
2021/07/15 07:28:56;;;;;;;6.28;1.75;;;;;;;22.33;92.12;100244.81;4862073;29;20498;-76
2021/07/15 07:31:21;;;;;;;6.72;2.00;;;;;;;22.73;87.66;100243.59;4845533;29;20025;-76
2021/07/15 07:33:46;;;;;;;7.13;2.03;;;;;;;22.43;89.09;100249.31;4845349;29;20622;-77
2021/07/15 07:36:12;;;;;;;5.82;1.75;;;;;;;21.56;94.72;100252.84;4845330;29;20040;-77
2021/07/15 07:38:37;;;;;;;8.75;1.67;;;;;;;22.03;97.32;100256.59;4861876;29;20542;-77
2021/07/15 07:41:03;;;;;;;6.07;1.70;;;;;;;21.99;94.66;100263.06;4845246;29;20041;-77
2021/07/15 07:43:28;;;;;;;4.05;1.60;;;;;;;22.29;97.95;100260.91;4845007;29;20025;-76
2021/07/15 07:45:54;;;;;;;5.18;1.65;;;;;;;22.43;92.98;100254.59;4861822;29;20154;-76
2021/07/15 07:48:20;;;;;;;5.32;1.65;;;;;;;22.25;93.89;100259.41;4861723;29;20478;-76
2021/07/15 07:50:46;;;;;;;5.63;1.98;;;;;;;21.88;94.58;100257.66;4845085;29;20037;-76
2021/07/15 07:53:11;;;;;;;8.80;2.17;;;;;;;21.81;97.48;100268.66;4844995;29;20037;-76
2021/07/15 07:55:37;;;;;;;3.88;1.70;;;;;;;21.64;100.00;100268.13;4861671;29;20439;-76
2021/07/15 07:58:02;;;;;;;6.28;2.13;;;;;;;21.73;95.73;100262.22;4861459;29;20035;-76
2021/07/15 08:00:28;;;;;;;5.72;2.00;;;;;;;22.02;93.28;100270.75;4844910;29;20029;-76
2021/07/15 08:02:53;;;;;;;6.13;1.70;;;;;;;21.68;96.16;100265.19;4844959;29;20134;-76
2021/07/15 08:05:22;;;;;;;4.13;1.90;;;;;;;21.62;98.49;100273.53;4862062;29;20029;-79
2021/07/15 08:07:48;;;;;;;6.68;2.53;;;;;;;21.72;93.93;100277.22;4844765;29;20034;-78
2021/07/15 08:10:14;;;;;;;5.90;1.95;;;;;;;22.02;94.95;100273.41;4844811;29;20215;-78
2021/07/15 08:12:40;;;;;;;6.45;1.95;;;;;;;22.10;95.38;100271.03;4861301;29;20025;-77
2021/07/15 08:15:07;;;;;;;7.53;2.10;;;;;;;22.09;95.96;100284.38;4861154;29;20479;-77
2021/07/15 08:17:32;;;;;;;9.00;2.38;;;;;;;22.11;93.50;100285.97;4861284;29;20056;-77
2021/07/15 08:19:57;;;;;;;4.28;1.98;;;;;;;22.08;90.12;100283.53;4861303;29;20479;-76
2021/07/15 08:22:23;;;;;;;5.88;2.50;;;;;;;21.96;88.88;100293.16;4861160;29;20053;-76
2021/07/15 08:24:48;;;;;;;5.85;2.78;;;;;;;22.36;89.55;100289.53;4861074;29;20475;-76
2021/07/15 08:27:13;;;;;;;7.50;2.50;;;;;;;22.47;92.37;100295.69;4861079;29;20125;-77
2021/07/15 08:29:39;;;;;;;7.43;2.70;;;;;;;22.40;88.48;100301.56;4861233;29;20270;-77
2021/07/15 08:32:06;;;;;;;6.88;2.50;;;;;;;22.79;86.50;100297.81;4844255;29;20037;-77
2021/07/15 08:34:31;;;;;;;4.38;2.28;;;;;;;23.08;83.44;100302.78;4844195;29;20120;-77
2021/07/15 08:36:56;;;;;;;5.78;2.30;;;;;;;23.22;82.80;100305.25;4844076;29;20166;-76
2021/07/15 08:39:21;;;;;;;7.88;2.60;;;;;;;23.12;83.17;100313.03;4844266;29;20491;-77
2021/07/15 08:41:48;;;;;;;4.75;2.50;;;;;;;23.27;81.80;100310.19;4860876;29;20035;-77
2021/07/15 08:44:14;;;;;;;5.15;2.17;;;;;;;23.51;76.24;100305.69;4860731;29;20026;-76
2021/07/15 08:46:40;;;;;;;4.50;2.08;;;;;;;26.20;66.78;100310.28;4844154;29;20028;-76
2021/07/15 08:49:07;;;;;;;6.57;2.28;;;;;;;27.04;65.04;100306.28;4844145;29;20501;-76
2021/07/15 08:51:32;;;;;;;7.35;2.20;;;;;;;27.09;62.91;100300.53;4843984;29;20478;-76
2021/07/15 08:53:58;;;;;;;5.25;1.80;;;;;;;27.41;61.60;100296.75;4860547;29;20026;-76
2021/07/15 08:56:41;;;;;;;4.40;1.92;;;;;;;27.73;61.23;100283.88;4859826;29;20053;-76
2021/07/15 08:59:08;;;;;;;4.35;1.75;;;;;;;27.36;59.09;100281.19;4860682;29;20037;-76
2021/07/15 09:01:35;;;;;;;4.35;1.88;;;;;;;27.31;58.83;100292.28;4843841;29;20068;-76
2021/07/15 09:04:01;;;;;;;5.35;1.92;;;;;;;28.71;59.10;100294.94;4860361;29;20048;-77
2021/07/15 09:06:27;;;;;;;7.57;2.00;;;;;;;28.43;60.04;100300.31;4844194;29;20033;-76
2021/07/15 09:08:54;;;;;;;5.35;1.63;;;;;;;28.68;54.76;100293.41;4860503;29;20414;-76
2021/07/15 09:11:20;;;;;;;4.28;1.65;;;;;;;29.28;52.84;100294.63;4843821;29;20049;-76
2021/07/15 09:13:46;;;;;;;3.90;1.67;;;;;;;28.84;52.35;100298.06;4860534;29;20033;-76
2021/07/15 09:16:15;;;;;;;4.53;1.50;;;;;;;25.88;61.55;100295.34;4843796;29;20108;-76
2021/07/15 09:19:01;;;;;;;4.65;1.90;;;;;;;24.85;67.26;100300.47;4843671;29;20033;-76
2021/07/15 09:21:33;;;;;;;4.57;1.80;;;;;;;24.86;70.41;100291.53;4843696;29;20033;-76
2021/07/15 09:24:04;;;;;;;4.10;1.90;;;;;;;24.92;70.56;100293.69;4860304;29;20030;-77
2021/07/15 09:26:32;;;;;;;6.32;1.70;;;;;;;25.11;69.28;100291.19;4860193;29;20025;-75
2021/07/15 09:29:15;;;;;;;6.07;1.95;;;;;;;27.53;59.86;100285.78;4860254;29;20056;-76
2021/07/15 09:31:58;;;;;;;3.40;1.58;;;;;;;28.62;55.69;100288.69;4860322;29;20026;-76
2021/07/15 09:34:26;;;;;;;4.20;1.67;;;;;;;29.20;53.42;100295.41;4860323;29;20367;-76
2021/07/15 09:36:53;;;;;;;5.68;2.00;;;;;;;29.21;50.75;100289.06;4860108;29;20113;-76
2021/07/15 09:39:24;;;;;;;4.30;1.70;;;;;;;26.08;56.71;100293.63;4843641;29;20053;-76
2021/07/15 09:42:05;;;;;;;4.20;1.70;;;;;;;27.21;54.55;100296.75;4843577;29;20128;-76
2021/07/15 09:44:31;;;;;;;5.28;1.70;;;;;;;28.22;55.40;100297.03;4843548;29;20509;-76
2021/07/15 09:46:56;;;;;;;4.10;1.73;;;;;;;29.55;51.66;100297.16;4860277;29;20032;-76
2021/07/15 09:49:30;;;;;;;4.40;1.45;;;;;;;30.39;52.18;100297.44;4843546;29;20021;-76
2021/07/15 09:51:58;;;;;;;7.78;1.77;;;;;;;29.16;48.55;100299.41;4860181;29;20101;-76
2021/07/15 09:54:23;;;;;;;4.85;1.90;;;;;;;28.14;51.76;100292.47;4843565;29;20051;-77
2021/07/15 09:56:49;;;;;;;5.57;1.77;;;;;;;29.24;51.02;100293.25;4859981;29;20034;-76
2021/07/15 09:59:14;;;;;;;4.38;1.38;;;;;;;30.25;47.92;100302.41;4860137;29;20114;-76
2021/07/15 10:01:48;;;;;;;5.50;1.65;;;;;;;28.38;53.66;100307.06;4843362;29;20057;-76
2021/07/15 10:04:21;;;;;;;5.50;1.67;;;;;;;29.32;49.29;100307.53;4860051;29;20033;-76
2021/07/15 10:06:48;;;;;;;8.40;1.77;;;;;;;29.35;47.46;100309.88;4860419;29;20467;-76
2021/07/15 10:09:22;;;;;;;5.65;1.50;;;;;;;30.76;46.34;100318.47;4846780;29;20025;-76
2021/07/15 10:11:47;;;;;;;5.70;1.58;;;;;;;30.62;45.04;100319.94;4863349;29;20455;-76
2021/07/15 10:14:14;;;;;;;5.28;1.90;;;;;;;27.53;51.88;100312.44;4863401;29;20108;-76
2021/07/15 10:16:42;;;;;;;4.35;1.70;;;;;;;26.83;56.19;100322.38;4863234;29;20057;-76
2021/07/15 10:19:16;;;;;;;6.15;1.60;;;;;;;27.77;55.08;100308.41;4863367;29;20499;-77
2021/07/15 10:21:42;;;;;;;3.40;1.33;;;;;;;26.22;58.00;100303.88;4863483;29;20472;-76
2021/07/15 10:24:21;;;;;;;4.82;1.88;;;;;;;26.18;58.79;100303.31;4846584;29;20022;-76
2021/07/15 10:26:49;;;;;;;4.18;1.70;;;;;;;25.81;56.79;100304.81;4846599;29;20077;-76
2021/07/15 10:29:15;;;;;;;4.63;1.70;;;;;;;26.89;53.84;100305.03;4846509;29;20041;-77
2021/07/15 10:31:41;;;;;;;3.20;1.40;;;;;;;26.84;54.21;100310.75;4863136;29;20029;-76
2021/07/15 10:34:08;;;;;;;4.15;1.77;;;;;;;27.09;55.71;100305.84;4863414;29;20103;-76
2021/07/15 10:36:36;;;;;;;4.63;1.70;;;;;;;26.19;59.60;100309.47;4862882;29;20026;-76
2021/07/15 10:39:07;;;;;;;6.57;1.90;;;;;;;25.76;61.99;100302.53;4846319;29;20037;-76
2021/07/15 10:41:33;;;;;;;4.10;1.65;;;;;;;27.01;56.51;100301.25;4862941;29;20030;-76
2021/07/15 10:43:59;;;;;;;4.60;1.58;;;;;;;26.79;59.82;100297.03;4846329;29;20077;-76
2021/07/15 10:46:25;;;;;;;5.43;1.70;;;;;;;26.03;60.39;100298.50;4862738;29;20053;-76
2021/07/15 10:48:51;;;;;;;4.13;1.90;;;;;;;26.25;59.41;100297.44;4862859;29;20026;-76
2021/07/15 10:51:17;;;;;;;4.40;2.00;;;;;;;28.08;55.53;100298.41;4863055;29;20029;-78
2021/07/15 10:53:43;;;;;;;6.00;1.80;;;;;;;28.29;53.05;100298.13;4862839;29;20089;-76
2021/07/15 10:56:09;;;;;;;5.15;1.90;;;;;;;27.69;53.25;100289.66;4846145;29;20504;-76
2021/07/15 10:58:48;;;;;;;5.60;1.80;;;;;;;28.77;52.37;100302.34;4862580;29;20443;-77
2021/07/15 11:01:41;;;;;;;4.25;1.70;;;;;;;29.92;50.43;100298.72;4846139;29;20116;-76
2021/07/15 11:04:22;;;;;;;4.37;2.00;;;;;;;28.85;50.36;100297.09;4846752;29;20090;-76
2021/07/15 11:06:52;;;;;;;4.95;2.30;;;;;;;29.26;47.63;100296.63;4862434;29;20030;-76
2021/07/15 11:09:23;;;;;;;4.55;2.40;;;;;;;30.37;48.34;100299.47;4862431;29;20029;-76
2021/07/15 11:11:50;;;;;;;4.68;2.40;;;;;;;30.60;48.22;100305.03;4862427;29;20210;-76
2021/07/15 11:14:46;;;;;;;5.35;2.42;;;;;;;30.69;44.22;100296.84;4862317;29;20100;-76
2021/07/15 11:17:20;;;;;;;5.22;2.50;;;;;;;31.02;42.82;100302.28;4845586;29;20036;-76
2021/07/15 11:20:04;;;;;;;7.18;2.30;;;;;;;27.42;52.15;100301.09;4861715;29;20399;-76
2021/07/15 11:22:47;;;;;;;6.78;2.20;;;;;;;28.16;50.87;100318.97;4845829;29;20074;-78
2021/07/15 11:25:18;;;;;;;4.68;2.50;;;;;;;28.00;51.66;100330.28;4845794;29;20402;-77
2021/07/15 11:27:47;;;;;;;4.82;2.35;;;;;;;26.67;56.91;100330.06;4845651;29;20124;-77
2021/07/15 11:30:15;;;;;;;6.13;2.55;;;;;;;25.85;56.69;100331.00;4845786;29;20112;-77